CheckWX is a tool to help pilots better visualize weather data.  It is not intended as a substitute for an official pre-flight weather briefing.

05:52:16 UTC

KBAF METAR
Westfield-Barnes Regional Airport
Westfield/Springfield, Massachusetts, USA
Current

59 mins ago

KBAF 200453Z AUTO 29007KT 10SM CLR M09/M16 A3055 RMK AO2 SLP356 T10891161 410221133
Observed
Feb-20 @ 04:53 UTC
Wind
  • 290° at 7 KTS
Visibility
16,093 meters
Flight Rules
VFR
Cloud Levels
  • Clear skies
Temperature
-9°C / 16°F
Dewpoint
-16°C / 3°F
Humidity
57%
Altimeter
30.55" Hg
Pressure
1035.6 hPa
Previous

2 hours ago

KBAF 200353Z AUTO 00000KT 10SM CLR M08/M17 A3057 RMK AO2 SLP361 T10781167
Observed
Feb-20 @ 03:53 UTC
Visibility
16,093 meters
Flight Rules
VFR
Cloud Levels
  • Clear skies
Temperature
-8°C / 18°F
Dewpoint
-17°C / 1°F
Humidity
49%
Altimeter
30.57" Hg
Pressure
1036.1 hPa
Previous

3 hours ago

KBAF 200253Z 00000KT 10SM CLR M08/M17 A3059 RMK AO2 SLP367 T10781167 51015
Observed
Feb-20 @ 02:53 UTC
Visibility
16,093 meters
Flight Rules
VFR
Cloud Levels
  • Clear skies
Temperature
-8°C / 18°F
Dewpoint
-17°C / 1°F
Humidity
49%
Altimeter
30.59" Hg
Pressure
1036.7 hPa